Time;durP1;ratioP1;P1;durP2;ratioP2;P2;SDS_P1;SDS_P2;PMS_P1;PMS_P2;Temp;Humidity;BMP_temperature;BMP_pressure;BME280_temperature;BME280_humidity;BME280_pressure;Samples;Min_cycle;Max_cycle;Signal;HPM_P1;HPM_P2
2023/06/29 00:01:01;;;;;;;40.08;26.88;;;17.80;99.90;;;;;;6205733;23;20085;-84
2023/06/29 00:03:27;;;;;;;35.30;25.73;;;17.80;99.90;;;;;;6205761;23;20284;-85
2023/06/29 00:05:56;;;;;;;34.17;25.33;;;17.80;99.90;;;;;;6204895;23;20020;-85
2023/06/29 00:08:23;;;;;;;33.08;25.75;;;17.90;99.90;;;;;;6231022;23;20016;-84
2023/06/29 00:10:50;;;;;;;39.05;26.70;;;17.80;99.90;;;;;;6204734;23;20020;-86
2023/06/29 00:13:16;;;;;;;37.05;27.30;;;17.80;99.90;;;;;;6204831;23;20072;-84
2023/06/29 00:15:42;;;;;;;34.45;25.20;;;17.80;99.90;;;;;;6205100;23;20036;-84
2023/06/29 00:18:12;;;;;;;35.90;26.40;;;17.80;99.90;;;;;;6205230;23;20012;-85
2023/06/29 00:20:42;;;;;;;38.22;27.25;;;17.80;99.90;;;;;;6230269;23;20016;-84
2023/06/29 00:23:08;;;;;;;34.25;27.33;;;17.80;99.90;;;;;;6204748;23;20027;-84
2023/06/29 00:25:35;;;;;;;36.03;25.95;;;17.80;99.90;;;;;;6205075;23;20115;-85
2023/06/29 00:28:01;;;;;;;37.45;26.83;;;17.80;99.90;;;;;;6204578;23;20095;-85
2023/06/29 00:30:27;;;;;;;32.67;26.08;;;17.80;99.90;;;;;;6205194;23;20027;-85
2023/06/29 00:32:53;;;;;;;36.08;26.85;;;17.80;99.90;;;;;;6204480;23;20457;-84
2023/06/29 00:35:19;;;;;;;36.08;27.23;;;17.80;99.90;;;;;;6205103;23;20020;-84
2023/06/29 00:37:48;;;;;;;36.67;26.83;;;17.80;99.90;;;;;;6205240;23;20011;-85
2023/06/29 00:40:14;;;;;;;34.22;27.20;;;17.50;99.90;;;;;;6231248;23;20012;-85
2023/06/29 00:42:39;;;;;;;31.67;25.73;;;19.90;99.90;;;;;;6205426;23;20416;-85
2023/06/29 00:45:06;;;;;;;36.67;27.33;;;17.80;99.90;;;;;;6204666;23;20047;-85
2023/06/29 00:47:32;;;;;;;33.35;25.95;;;17.80;99.90;;;;;;6205156;23;20054;-85
2023/06/29 00:49:59;;;;;;;33.40;25.17;;;17.80;99.90;;;;;;6205302;23;20016;-85
2023/06/29 00:52:27;;;;;;;31.45;25.98;;;17.70;99.90;;;;;;6205536;23;20459;-85
2023/06/29 00:54:55;;;;;;;38.17;28.25;;;17.70;99.90;;;;;;6205169;23;20015;-85
2023/06/29 00:57:21;;;;;;;40.33;28.75;;;17.80;99.90;;;;;;6205208;23;20044;-85
2023/06/29 00:59:47;;;;;;;40.42;29.73;;;17.80;99.90;;;;;;6230923;23;20016;-86
2023/06/29 01:02:15;;;;;;;40.92;28.83;;;17.90;99.90;;;;;;6205513;23;20016;-86
2023/06/29 01:04:45;;;;;;;41.20;29.17;;;17.80;99.90;;;;;;6230033;23;20016;-86
2023/06/29 01:07:26;;;;;;;38.03;27.92;;;17.80;99.90;;;;;;6204734;23;20538;-85
2023/06/29 01:09:53;;;;;;;40.58;28.58;;;17.80;99.90;;;;;;6230727;23;20850;-85
2023/06/29 01:12:20;;;;;;;37.80;28.75;;;17.80;99.90;;;;;;6205474;23;20348;-85
2023/06/29 01:14:48;;;;;;;35.78;27.52;;;18.60;99.90;;;;;;6205460;23;20012;-85
2023/06/29 01:17:18;;;;;;;43.47;28.65;;;17.80;99.90;;;;;;6230764;23;20031;-85
2023/06/29 01:19:47;;;;;;;39.30;27.92;;;17.80;99.90;;;;;;6204545;23;20012;-85
2023/06/29 01:22:26;;;;;;;39.03;28.30;;;15.40;99.90;;;;;;6230837;23;20047;-85
2023/06/29 01:24:52;;;;;;;38.92;26.95;;;17.80;99.90;;;;;;6206519;23;20039;-85
2023/06/29 01:27:20;;;;;;;39.17;28.17;;;17.80;99.90;;;;;;6231875;23;20020;-85
2023/06/29 01:29:53;;;;;;;39.05;28.45;;;17.80;99.90;;;;;;6206797;23;20020;-85
2023/06/29 01:32:19;;;;;;;38.72;29.08;;;17.70;99.90;;;;;;6230435;23;20023;-84
2023/06/29 01:34:45;;;;;;;39.40;28.17;;;17.90;99.90;;;;;;6207216;23;20059;-85
2023/06/29 01:37:19;;;;;;;39.70;28.25;;;17.80;99.90;;;;;;6205787;23;20016;-86
2023/06/29 01:39:53;;;;;;;41.03;28.42;;;18.00;99.90;;;;;;6205997;23;20016;-85
2023/06/29 01:42:20;;;;;;;41.03;28.45;;;17.70;99.90;;;;;;6206089;23;20016;-85
2023/06/29 01:44:49;;;;;;;40.83;29.02;;;17.90;99.90;;;;;;6206171;23;20031;-85
2023/06/29 01:47:17;;;;;;;36.78;26.65;;;17.80;99.90;;;;;;6205652;23;20023;-85
2023/06/29 01:49:43;;;;;;;35.33;26.73;;;17.70;99.90;;;;;;6231873;23;20016;-86
2023/06/29 01:52:09;;;;;;;36.63;26.38;;;17.80;99.90;;;;;;6205312;23;20917;-86
2023/06/29 01:54:35;;;;;;;43.08;30.50;;;17.70;99.90;;;;;;6205361;23;20101;-85
2023/06/29 01:57:03;;;;;;;36.72;27.95;;;17.80;99.90;;;;;;6204673;23;20578;-86
2023/06/29 01:59:30;;;;;;;41.00;29.17;;;17.70;99.90;;;;;;6205042;23;20066;-85
2023/06/29 02:01:55;;;;;;;43.17;28.60;;;17.80;99.90;;;;;;6203468;23;20322;-85
2023/06/29 02:04:21;;;;;;;40.28;28.55;;;17.70;99.90;;;;;;6205068;23;20072;-86
2023/06/29 02:06:47;;;;;;;41.28;30.67;;;17.70;99.90;;;;;;6206139;23;20091;-86
2023/06/29 02:09:13;;;;;;;37.17;27.10;;;17.70;99.90;;;;;;6206323;23;20012;-86
2023/06/29 02:11:39;;;;;;;41.65;27.90;;;17.70;99.90;;;;;;6231643;23;20098;-86
2023/06/29 02:14:05;;;;;;;41.25;30.08;;;17.70;99.90;;;;;;6205495;23;20016;-85
2023/06/29 02:16:30;;;;;;;38.60;28.48;;;17.70;99.90;;;;;;6205165;23;20065;-86
2023/06/29 02:18:56;;;;;;;42.25;29.20;;;17.70;99.90;;;;;;6231446;23;20012;-86
2023/06/29 02:21:25;;;;;;;41.42;30.65;;;17.70;99.90;;;;;;6206302;23;20039;-86
2023/06/29 02:23:51;;;;;;;36.55;28.70;;;17.70;99.90;;;;;;6205877;23;20094;-85
2023/06/29 02:26:16;;;;;;;37.33;28.40;;;17.70;99.90;;;;;;6205347;23;20027;-85
2023/06/29 02:28:42;;;;;;;39.22;28.75;;;17.70;99.90;;;;;;6205758;23;20054;-85
2023/06/29 02:31:08;;;;;;;41.88;30.08;;;17.70;99.90;;;;;;6205449;23;20083;-85
2023/06/29 02:33:34;;;;;;;38.60;27.92;;;17.70;99.90;;;;;;6206213;23;20697;-85
2023/06/29 02:36:00;;;;;;;42.13;28.95;;;17.70;99.90;;;;;;6207031;23;20040;-85
2023/06/29 02:38:25;;;;;;;40.65;28.23;;;17.70;99.90;;;;;;6208710;23;20089;-85
2023/06/29 02:40:51;;;;;;;38.13;27.80;;;17.70;99.90;;;;;;6207701;23;20858;-86
2023/06/29 02:43:17;;;;;;;37.80;27.67;;;17.80;99.90;;;;;;6206267;23;20020;-86
2023/06/29 02:45:43;;;;;;;39.10;27.48;;;17.70;99.90;;;;;;6231229;23;20059;-86
2023/06/29 02:48:09;;;;;;;38.05;27.75;;;17.70;99.90;;;;;;6205250;23;20453;-86
2023/06/29 02:50:35;;;;;;;40.33;27.80;;;17.70;99.90;;;;;;6206586;23;20019;-86
2023/06/29 02:53:01;;;;;;;39.08;28.90;;;17.60;99.90;;;;;;6205143;23;20035;-86
2023/06/29 02:55:29;;;;;;;37.28;26.75;;;17.70;99.90;;;;;;6229925;23;20094;-85
2023/06/29 02:57:55;;;;;;;36.50;27.13;;;17.70;99.90;;;;;;6230647;23;20016;-86
2023/06/29 03:00:21;;;;;;;33.17;26.98;;;18.10;99.90;;;;;;6229469;23;20821;-85
2023/06/29 03:02:47;;;;;;;39.53;27.90;;;17.70;99.90;;;;;;6203898;23;20753;-86
2023/06/29 03:05:13;;;;;;;36.00;26.77;;;17.60;99.90;;;;;;6204010;23;20024;-86
2023/06/29 03:07:38;;;;;;;37.47;26.92;;;17.70;99.90;;;;;;6204460;23;20574;-85
2023/06/29 03:10:05;;;;;;;39.80;26.48;;;17.70;99.90;;;;;;6204182;23;20023;-84
2023/06/29 03:12:30;;;;;;;41.88;27.58;;;17.10;99.90;;;;;;6204044;23;20343;-83
2023/06/29 03:14:56;;;;;;;37.13;27.17;;;17.60;99.90;;;;;;6205327;23;20095;-85
2023/06/29 03:17:24;;;;;;;39.97;27.30;;;17.60;99.90;;;;;;6205332;23;20039;-85
2023/06/29 03:19:50;;;;;;;32.78;24.05;;;17.60;99.90;;;;;;6205011;23;20016;-84
2023/06/29 03:22:16;;;;;;;36.83;26.88;;;17.60;99.90;;;;;;6205354;23;20061;-85
2023/06/29 03:24:41;;;;;;;36.63;26.77;;;17.20;99.90;;;;;;6205609;23;20016;-84
2023/06/29 03:27:07;;;;;;;38.63;27.27;;;17.60;99.90;;;;;;6205704;23;20328;-84
2023/06/29 03:29:33;;;;;;;34.72;25.45;;;17.60;99.90;;;;;;6205244;23;20016;-85
2023/06/29 03:31:59;;;;;;;36.53;25.98;;;17.60;99.90;;;;;;6206066;23;20008;-84
2023/06/29 03:34:26;;;;;;;41.75;27.38;;;17.70;99.90;;;;;;6205067;23;20043;-85
2023/06/29 03:36:52;;;;;;;37.58;26.65;;;17.60;99.90;;;;;;6205243;23;20016;-85
2023/06/29 03:39:19;;;;;;;41.47;27.25;;;17.60;99.90;;;;;;6206754;23;20079;-85
2023/06/29 03:41:44;;;;;;;38.15;27.85;;;17.60;99.90;;;;;;6206655;23;20071;-84
2023/06/29 03:44:11;;;;;;;40.85;26.27;;;17.60;99.90;;;;;;6206550;23;20094;-85
2023/06/29 03:46:36;;;;;;;36.22;27.30;;;17.60;99.90;;;;;;6232261;23;20063;-85
2023/06/29 03:49:02;;;;;;;43.97;29.55;;;17.60;99.90;;;;;;6206402;23;20019;-84
2023/06/29 03:51:28;;;;;;;35.85;27.45;;;17.70;99.90;;;;;;6206074;23;20027;-85
2023/06/29 03:53:54;;;;;;;34.72;25.17;;;17.80;99.90;;;;;;6205395;23;20111;-85
2023/06/29 03:56:20;;;;;;;36.42;27.45;;;17.80;99.90;;;;;;6205444;23;20012;-84
2023/06/29 03:58:46;;;;;;;35.80;26.92;;;17.80;99.90;;;;;;6205617;23;20055;-85
2023/06/29 04:01:11;;;;;;;37.53;28.33;;;17.90;99.90;;;;;;6206122;23;20012;-85
2023/06/29 04:03:37;;;;;;;41.45;27.58;;;17.90;99.90;;;;;;6206311;23;20016;-85
2023/06/29 04:06:03;;;;;;;37.72;27.60;;;17.90;99.90;;;;;;6205807;23;20475;-86
2023/06/29 04:08:29;;;;;;;36.65;27.20;;;18.10;99.90;;;;;;6206870;23;20020;-85
2023/06/29 04:10:54;;;;;;;39.83;28.05;;;18.00;99.90;;;;;;6206313;23;20016;-85
2023/06/29 04:13:20;;;;;;;44.00;27.67;;;18.00;99.90;;;;;;6206248;23;20030;-85
2023/06/29 04:15:46;;;;;;;38.17;28.27;;;18.00;99.90;;;;;;6206502;23;20018;-85
2023/06/29 04:18:12;;;;;;;37.85;28.38;;;18.00;99.90;;;;;;6206310;23;20016;-86
2023/06/29 04:20:37;;;;;;;37.95;27.50;;;18.00;99.90;;;;;;6205443;23;20016;-85
2023/06/29 04:23:03;;;;;;;37.90;26.45;;;18.10;99.90;;;;;;6205521;23;20127;-85
2023/06/29 04:25:29;;;;;;;36.90;26.88;;;18.10;99.90;;;;;;6231172;23;20016;-84
2023/06/29 04:27:56;;;;;;;34.50;26.90;;;18.10;99.90;;;;;;6205716;23;20046;-84
2023/06/29 04:30:21;;;;;;;39.47;27.38;;;18.10;99.90;;;;;;6205984;23;20016;-84
2023/06/29 04:32:47;;;;;;;38.13;26.80;;;18.10;99.90;;;;;;6204052;23;20043;-84
2023/06/29 04:35:13;;;;;;;36.55;26.70;;;18.10;99.90;;;;;;6204691;23;20008;-85
2023/06/29 04:37:42;;;;;;;36.08;28.45;;;18.10;99.90;;;;;;6204561;23;20023;-85
2023/06/29 04:40:10;;;;;;;36.83;27.58;;;18.20;99.90;;;;;;6203003;23;20408;-84
2023/06/29 04:42:47;;;;;;;39.03;28.33;;;18.20;99.90;;;;;;6204334;23;20046;-84
2023/06/29 04:45:17;;;;;;;45.92;30.95;;;18.30;99.90;;;;;;6228380;23;20095;-85
2023/06/29 04:47:49;;;;;;;41.45;27.80;;;18.30;99.90;;;;;;6204952;23;20464;-85
2023/06/29 04:50:15;;;;;;;37.47;25.92;;;18.30;99.90;;;;;;6205356;23;20935;-85
2023/06/29 04:52:42;;;;;;;36.10;26.50;;;18.40;99.90;;;;;;6230636;23;20462;-84
2023/06/29 04:55:12;;;;;;;39.42;26.23;;;18.40;99.90;;;;;;6205401;23;20015;-84
2023/06/29 04:57:38;;;;;;;35.95;26.33;;;18.50;99.90;;;;;;6231583;23;20051;-84
2023/06/29 05:00:10;;;;;;;34.92;26.98;;;18.50;99.90;;;;;;6205789;23;20110;-84
2023/06/29 05:02:38;;;;;;;37.72;27.33;;;18.60;99.90;;;;;;6231359;23;20012;-84
2023/06/29 05:05:04;;;;;;;33.10;25.70;;;18.80;99.90;;;;;;6205336;23;20051;-86
2023/06/29 05:07:30;;;;;;;40.13;27.50;;;18.90;99.90;;;;;;6205774;23;20462;-83
2023/06/29 05:09:57;;;;;;;33.67;25.42;;;19.00;99.90;;;;;;6204932;23;20019;-85
2023/06/29 05:12:23;;;;;;;33.50;25.95;;;19.10;99.90;;;;;;6205628;23;20016;-84
2023/06/29 05:14:48;;;;;;;36.17;25.83;;;19.40;99.90;;;;;;6204554;23;20051;-85
2023/06/29 05:17:14;;;;;;;33.42;25.33;;;19.60;99.90;;;;;;6205124;23;20047;-84
2023/06/29 05:19:40;;;;;;;34.55;25.33;;;19.80;99.90;;;;;;6230155;23;20066;-84
2023/06/29 05:22:06;;;;;;;38.45;27.90;;;20.00;99.90;;;;;;6230010;23;20817;-84
2023/06/29 05:24:31;;;;;;;33.20;26.50;;;20.10;99.90;;;;;;6230364;23;20028;-85
2023/06/29 05:26:57;;;;;;;35.63;24.83;;;20.20;99.90;;;;;;6204590;23;20020;-85
2023/06/29 05:29:23;;;;;;;34.08;26.15;;;20.30;99.90;;;;;;6204749;23;20094;-84
2023/06/29 05:31:49;;;;;;;31.23;24.95;;;20.40;99.90;;;;;;6204552;23;20635;-85
2023/06/29 05:34:14;;;;;;;35.05;26.17;;;20.50;99.90;;;;;;6229016;23;20024;-84
2023/06/29 05:36:40;;;;;;;34.83;25.45;;;20.60;99.90;;;;;;6204895;23;20035;-84
2023/06/29 05:39:06;;;;;;;36.38;26.00;;;20.70;99.90;;;;;;6204140;23;20016;-84
2023/06/29 05:41:32;;;;;;;33.70;26.27;;;20.80;99.90;;;;;;6205299;23;20014;-84
2023/06/29 05:43:59;;;;;;;33.50;25.20;;;20.90;99.90;;;;;;6229658;23;20028;-85
2023/06/29 05:46:25;;;;;;;35.25;27.45;;;20.90;99.90;;;;;;6205483;23;20070;-84
2023/06/29 05:48:51;;;;;;;31.05;24.77;;;20.90;99.90;;;;;;6206036;23;20012;-85
2023/06/29 05:51:17;;;;;;;34.72;25.85;;;20.40;99.90;;;;;;6231370;23;20024;-85
2023/06/29 05:53:43;;;;;;;32.30;25.63;;;20.90;99.90;;;;;;6204729;23;20020;-84
2023/06/29 05:56:18;;;;;;;33.35;25.10;;;22.20;99.90;;;;;;6205368;23;20016;-84
2023/06/29 05:58:44;;;;;;;34.10;25.45;;;21.00;99.90;;;;;;6205612;23;20012;-85
2023/06/29 06:01:10;;;;;;;32.17;24.98;;;23.00;99.90;;;;;;6206965;23;20087;-85
2023/06/29 06:03:36;;;;;;;35.17;23.67;;;21.30;99.90;;;;;;6205403;23;20020;-85
2023/06/29 06:06:02;;;;;;;33.50;25.55;;;21.30;99.90;;;;;;6205591;23;20020;-85
2023/06/29 06:08:33;;;;;;;31.25;24.75;;;21.50;99.90;;;;;;6204716;23;20020;-85
2023/06/29 06:11:09;;;;;;;32.00;23.85;;;21.70;99.90;;;;;;6204825;23;20091;-86
2023/06/29 06:13:35;;;;;;;31.83;24.02;;;23.60;99.90;;;;;;6204327;23;20725;-84
2023/06/29 06:16:01;;;;;;;35.08;24.30;;;22.30;99.90;;;;;;6205933;23;20042;-84
2023/06/29 06:18:27;;;;;;;33.38;24.90;;;22.70;99.80;;;;;;6230091;23;20016;-85
2023/06/29 06:20:52;;;;;;;28.42;23.15;;;22.80;99.60;;;;;;6205355;23;20008;-84
2023/06/29 06:23:19;;;;;;;30.55;24.27;;;23.00;98.60;;;;;;6229765;23;20019;-84
2023/06/29 06:25:48;;;;;;;31.60;23.60;;;23.40;98.20;;;;;;6204407;23;20016;-85
2023/06/29 06:28:17;;;;;;;30.30;23.85;;;23.50;97.80;;;;;;6205008;23;20016;-84
2023/06/29 06:30:43;;;;;;;26.48;22.00;;;23.90;97.50;;;;;;6229997;23;20020;-85
2023/06/29 06:33:09;;;;;;;28.40;21.50;;;24.30;97.00;;;;;;6206338;23;20027;-87
2023/06/29 06:35:35;;;;;;;29.85;22.55;;;24.60;96.60;;;;;;6207095;23;20020;-86
2023/06/29 06:38:01;;;;;;;27.70;22.02;;;24.70;95.80;;;;;;6232353;23;20012;-86
2023/06/29 06:40:26;;;;;;;28.20;21.55;;;24.60;95.50;;;;;;6230391;23;20501;-86
2023/06/29 06:42:52;;;;;;;31.30;21.85;;;24.50;95.50;;;;;;6204990;23;20020;-85
2023/06/29 06:45:18;;;;;;;30.02;21.75;;;24.30;95.20;;;;;;6204242;23;20517;-85
2023/06/29 06:47:44;;;;;;;26.67;20.38;;;24.10;95.60;;;;;;6203822;23;20027;-85
2023/06/29 06:50:10;;;;;;;29.52;21.65;;;23.90;96.00;;;;;;6229429;23;20067;-85
2023/06/29 06:52:35;;;;;;;26.30;21.08;;;23.70;95.40;;;;;;6202559;23;20598;-86
2023/06/29 06:55:05;;;;;;;27.80;21.55;;;23.50;95.70;;;;;;6202944;23;20016;-84
2023/06/29 06:57:31;;;;;;;24.65;19.38;;;23.30;96.00;;;;;;6203971;23;20112;-84
2023/06/29 06:59:57;;;;;;;29.95;20.67;;;23.10;96.40;;;;;;6203409;23;20016;-85
2023/06/29 07:02:23;;;;;;;25.85;19.42;;;23.00;96.50;;;;;;6203359;23;20122;-85
2023/06/29 07:04:49;;;;;;;28.98;21.15;;;22.80;96.70;;;;;;6203912;23;20139;-85
2023/06/29 07:07:15;;;;;;;27.42;21.48;;;22.70;96.80;;;;;;6204890;23;20027;-84
2023/06/29 07:09:40;;;;;;;24.60;19.77;;;22.80;97.30;;;;;;6230115;23;20012;-85
2023/06/29 07:12:07;;;;;;;32.15;22.60;;;22.50;97.40;;;;;;6204754;23;20074;-85
2023/06/29 07:14:32;;;;;;;28.25;21.75;;;22.40;97.40;;;;;;6204597;23;20023;-86
2023/06/29 07:16:58;;;;;;;31.08;21.60;;;22.30;97.60;;;;;;6204976;23;20012;-86
2023/06/29 07:19:24;;;;;;;29.08;22.15;;;22.20;97.70;;;;;;6230046;23;20786;-85
2023/06/29 07:26:14;;;;;;;27.88;20.08;;;22.20;98.10;;;;;;6231254;23;20686;-88
2023/06/29 07:29:10;;;;;;;27.38;20.80;;;22.10;98.40;;;;;;6205222;23;20016;-87
2023/06/29 07:31:35;;;;;;;28.98;20.73;;;22.00;99.90;;;;;;6176780;23;20016;-85
2023/06/29 07:34:04;;;;;;;29.90;22.60;;;22.50;99.90;;;;;;6202398;23;20082;-85
2023/06/29 07:36:41;;;;;;;;;;;;;;;;;;;;;
2023/06/29 07:39:22;;;;;;;27.73;20.00;;;21.90;98.60;;;;;;6228233;23;20454;-84
2023/06/29 07:42:06;;;;;;;29.38;22.42;;;21.30;99.10;;;;;;6204493;23;20022;-86
2023/06/29 07:45:06;;;;;;;31.17;22.30;;;21.80;98.50;;;;;;6200120;23;20478;-86
2023/06/29 07:47:35;;;;;;;29.00;22.95;;;18.70;97.60;;;;;;6215485;23;20022;-89
2023/06/29 07:50:12;;;;;;;28.42;20.92;;;21.70;99.90;;;;;;6213544;23;20016;-87
2023/06/29 07:53:01;;;;;;;26.20;21.10;;;22.40;99.80;;;;;;6203322;23;20115;-88
2023/06/29 07:59:00;;;;;;;29.77;23.05;;;21.60;99.40;;;;;;6176748;23;20392;-86
2023/06/29 08:01:29;;;;;;;27.70;21.88;;;21.90;99.90;;;;;;6169388;23;20016;-86
2023/06/29 08:03:58;;;;;;;28.27;21.98;;;24.80;99.90;;;;;;6148107;23;20359;-85
2023/06/29 08:06:24;;;;;;;28.00;21.42;;;22.50;99.90;;;;;;6175388;23;20024;-84
2023/06/29 08:08:50;;;;;;;29.73;22.92;;;22.90;99.90;;;;;;6147209;23;20024;-85
2023/06/29 08:11:16;;;;;;;31.35;23.35;;;23.10;98.20;;;;;;6148775;23;20023;-83
2023/06/29 08:13:42;;;;;;;29.08;22.10;;;23.40;97.70;;;;;;6149596;23;20430;-83
2023/06/29 08:16:07;;;;;;;31.60;23.83;;;22.70;97.60;;;;;;6148391;23;20012;-85
2023/06/29 08:18:33;;;;;;;33.28;23.73;;;24.00;96.60;;;;;;6146930;23;20501;-83
2023/06/29 08:20:59;;;;;;;29.90;23.02;;;24.20;95.90;;;;;;6146411;23;20155;-82
2023/06/29 08:23:25;;;;;;;30.52;23.00;;;24.50;95.80;;;;;;6147258;23;20027;-82
2023/06/29 08:25:51;;;;;;;31.55;24.33;;;24.70;95.50;;;;;;6146780;23;20133;-83
2023/06/29 08:28:17;;;;;;;33.67;23.40;;;24.70;95.10;;;;;;6146786;23;20481;-83
2023/06/29 08:30:43;;;;;;;34.15;24.73;;;24.50;94.80;;;;;;6189497;23;20498;-84
2023/06/29 08:33:08;;;;;;;33.08;23.63;;;24.40;94.70;;;;;;6202956;23;20020;-84
2023/06/29 08:35:34;;;;;;;35.20;26.42;;;24.20;94.70;;;;;;6228061;23;20047;-83
2023/06/29 08:38:00;;;;;;;32.42;25.60;;;24.00;94.80;;;;;;6203109;23;20055;-83
2023/06/29 08:40:26;;;;;;;36.60;25.35;;;23.90;94.80;;;;;;6203419;23;20119;-83
2023/06/29 08:42:52;;;;;;;35.88;26.65;;;23.70;95.30;;;;;;6228457;23;20365;-82
2023/06/29 08:45:18;;;;;;;33.95;26.33;;;23.50;95.80;;;;;;6203311;23;20530;-85
2023/06/29 08:47:59;;;;;;;;;;;;;;;;;;;;;
2023/06/29 08:50:27;;;;;;;36.95;27.83;;;23.30;96.90;;;;;;6230676;23;20016;-83
2023/06/29 08:52:54;;;;;;;36.15;27.42;;;23.20;97.00;;;;;;6202979;23;20016;-82
2023/06/29 08:55:20;;;;;;;31.33;27.05;;;25.20;97.80;;;;;;6202788;23;20012;-84
2023/06/29 08:57:46;;;;;;;35.10;27.45;;;24.80;98.00;;;;;;6228842;23;20020;-85
2023/06/29 09:00:16;;;;;;;38.38;27.27;;;23.20;97.70;;;;;;6203176;23;20089;-83
2023/06/29 09:02:43;;;;;;;39.10;30.08;;;23.50;97.50;;;;;;6202025;23;20325;-84
2023/06/29 09:05:11;;;;;;;31.08;26.10;;;24.00;97.50;;;;;;6204181;23;20058;-84
2023/06/29 09:07:39;;;;;;;34.10;25.60;;;24.70;97.30;;;;;;6202884;23;20019;-84
2023/06/29 09:10:07;;;;;;;34.13;28.58;;;25.10;96.70;;;;;;6203535;23;20016;-83
2023/06/29 09:12:36;;;;;;;33.85;27.20;;;25.60;95.90;;;;;;6229627;23;20023;-84
2023/06/29 09:15:08;;;;;;;36.08;27.65;;;26.00;95.40;;;;;;6202909;23;20016;-84
2023/06/29 09:17:34;;;;;;;34.00;26.20;;;26.20;94.50;;;;;;6203232;23;20704;-84
2023/06/29 09:20:13;;;;;;;27.70;24.05;;;26.30;94.20;;;;;;6203617;23;20032;-84
2023/06/29 09:22:39;;;;;;;29.02;23.40;;;26.30;93.80;;;;;;6200751;23;20066;-85
2023/06/29 09:25:06;;;;;;;31.63;25.45;;;26.30;93.50;;;;;;6228972;23;20016;-84
2023/06/29 09:27:34;;;;;;;34.53;26.20;;;26.30;93.20;;;;;;6203667;23;20035;-84
2023/06/29 09:30:02;;;;;;;32.55;24.48;;;26.50;92.70;;;;;;6203966;23;20632;-84
2023/06/29 09:32:35;;;;;;;31.38;23.88;;;26.40;92.30;;;;;;6228504;23;20016;-85
2023/06/29 09:35:06;;;;;;;27.38;20.60;;;26.30;92.10;;;;;;6203584;23;20023;-85
2023/06/29 09:37:33;;;;;;;31.25;22.98;;;26.20;92.30;;;;;;6229113;23;20403;-84
2023/06/29 09:39:59;;;;;;;36.67;24.98;;;26.10;93.00;;;;;;6203579;23;20565;-85
2023/06/29 09:42:29;;;;;;;28.23;24.15;;;25.90;92.30;;;;;;6204388;23;20020;-85
2023/06/29 09:45:07;;;;;;;26.48;21.77;;;25.80;91.60;;;;;;6203574;23;20020;-86
2023/06/29 09:47:33;;;;;;;29.70;22.75;;;25.80;91.70;;;;;;6202966;23;20078;-85
2023/06/29 09:50:00;;;;;;;28.75;22.48;;;25.70;92.00;;;;;;6203195;23;20020;-84
2023/06/29 09:52:26;;;;;;;28.73;23.35;;;25.60;92.20;;;;;;6203980;23;20016;-85
2023/06/29 09:54:57;;;;;;;28.77;21.90;;;25.60;91.80;;;;;;6203625;23;20726;-85
2023/06/29 09:57:25;;;;;;;27.67;22.55;;;25.60;92.10;;;;;;6228526;23;20094;-85
2023/06/29 09:59:51;;;;;;;27.17;22.77;;;25.90;92.20;;;;;;6228321;23;20054;-84
2023/06/29 10:02:18;;;;;;;27.50;21.90;;;26.00;91.80;;;;;;6203471;23;20061;-85
2023/06/29 10:04:43;;;;;;;31.30;23.45;;;25.90;91.40;;;;;;6203780;23;20488;-85
2023/06/29 10:07:16;;;;;;;29.00;21.50;;;25.90;91.40;;;;;;6202701;23;20016;-85
2023/06/29 10:09:46;;;;;;;27.90;20.98;;;25.80;91.30;;;;;;6203582;23;20016;-84
2023/06/29 10:12:14;;;;;;;29.35;21.90;;;25.70;91.40;;;;;;6203515;23;20026;-85
2023/06/29 10:14:43;;;;;;;27.30;21.77;;;25.60;91.40;;;;;;6203774;23;20016;-84
2023/06/29 10:17:13;;;;;;;28.83;23.13;;;25.40;91.40;;;;;;6204005;23;20013;-85
2023/06/29 10:19:41;;;;;;;25.95;22.33;;;25.20;91.30;;;;;;6204480;23;20016;-84
2023/06/29 10:22:11;;;;;;;30.42;23.02;;;25.10;91.40;;;;;;6204817;23;20016;-86
2023/06/29 10:24:43;;;;;;;31.52;23.25;;;25.00;91.60;;;;;;6206947;23;20399;-85
2023/06/29 10:27:10;;;;;;;28.65;22.42;;;24.90;91.50;;;;;;6208043;23;20094;-86
2023/06/29 10:29:43;;;;;;;27.67;21.45;;;24.70;91.50;;;;;;6233089;23;20089;-86
2023/06/29 10:32:27;;;;;;;23.27;18.55;;;24.40;91.30;;;;;;6205526;23;20043;-84
2023/06/29 10:35:10;;;;;;;28.80;21.05;;;24.30;91.70;;;;;;6204456;23;20054;-86
2023/06/29 10:37:56;;;;;;;26.58;21.00;;;24.20;92.00;;;;;;6203078;23;20348;-84
2023/06/29 10:40:27;;;;;;;30.65;23.70;;;22.90;93.10;;;;;;6228322;23;20097;-85
2023/06/29 10:42:56;;;;;;;28.20;22.80;;;23.30;94.50;;;;;;6202014;23;20016;-85
2023/06/29 10:45:22;;;;;;;28.42;22.77;;;23.10;95.40;;;;;;6203299;23;20129;-85
2023/06/29 10:47:57;;;;;;;27.88;22.55;;;23.10;97.20;;;;;;6202517;23;20494;-85
2023/06/29 10:50:30;;;;;;;27.65;23.35;;;22.70;96.00;;;;;;6203247;23;20016;-87
2023/06/29 10:53:00;;;;;;;28.23;21.42;;;22.90;95.80;;;;;;6228716;23;20030;-85
2023/06/29 10:55:50;;;;;;;28.63;21.65;;;22.30;95.80;;;;;;6228162;23;20091;-86
2023/06/29 10:58:23;;;;;;;26.02;20.83;;;22.80;95.30;;;;;;6202418;23;20016;-84
2023/06/29 11:00:51;;;;;;;27.95;20.90;;;22.80;95.40;;;;;;6202746;23;20067;-85
2023/06/29 11:03:19;;;;;;;26.55;22.08;;;22.80;95.30;;;;;;6202329;23;20043;-85
2023/06/29 11:05:54;;;;;;;28.17;22.88;;;22.80;95.30;;;;;;6202207;23;20022;-85
2023/06/29 11:08:21;;;;;;;26.88;21.63;;;22.80;95.20;;;;;;6203024;23;20012;-83
2023/06/29 11:10:48;;;;;;;30.55;22.65;;;22.80;95.00;;;;;;6201661;23;20027;-84
2023/06/29 11:13:14;;;;;;;28.27;21.40;;;22.70;95.30;;;;;;6228116;23;20016;-85
2023/06/29 11:15:40;;;;;;;27.48;22.15;;;22.70;95.70;;;;;;6202785;23;20012;-84
2023/06/29 11:18:07;;;;;;;28.00;22.15;;;22.70;95.30;;;;;;6202385;23;20493;-85
2023/06/29 11:20:36;;;;;;;30.35;23.63;;;22.80;95.50;;;;;;6201258;23;20044;-85
2023/06/29 11:23:02;;;;;;;27.48;22.15;;;23.00;95.40;;;;;;6202125;23;20090;-84
2023/06/29 11:25:29;;;;;;;30.17;23.33;;;23.20;95.40;;;;;;6203076;23;20111;-83
2023/06/29 11:27:56;;;;;;;29.23;23.08;;;23.30;95.20;;;;;;6203440;23;20026;-84
2023/06/29 11:30:22;;;;;;;28.83;22.58;;;23.40;95.10;;;;;;6202905;23;20063;-84
2023/06/29 11:32:51;;;;;;;30.52;24.45;;;23.50;95.00;;;;;;6202970;23;20860;-85
2023/06/29 11:35:22;;;;;;;31.27;24.40;;;23.40;94.90;;;;;;6204914;23;20016;-85
2023/06/29 11:37:57;;;;;;;31.15;24.45;;;23.60;95.00;;;;;;6204307;23;20016;-84
2023/06/29 11:40:24;;;;;;;30.67;25.67;;;23.70;94.60;;;;;;6204762;23;20012;-85
2023/06/29 11:42:50;;;;;;;28.65;23.52;;;23.60;94.50;;;;;;6204180;23;20605;-84
2023/06/29 11:45:17;;;;;;;31.50;24.55;;;24.00;94.30;;;;;;6205347;23;20020;-85
2023/06/29 11:47:45;;;;;;;29.35;24.02;;;25.20;94.30;;;;;;6204881;23;20061;-85
2023/06/29 11:50:11;;;;;;;30.50;24.85;;;24.10;93.70;;;;;;6204810;23;20020;-84
2023/06/29 11:52:39;;;;;;;31.50;24.88;;;24.20;93.70;;;;;;6204312;23;20016;-84
2023/06/29 11:55:07;;;;;;;31.25;25.17;;;24.30;93.40;;;;;;6204330;23;20016;-85
2023/06/29 11:57:34;;;;;;;29.95;24.90;;;24.40;93.20;;;;;;6230584;23;20084;-84
2023/06/29 12:00:08;;;;;;;28.52;23.65;;;24.50;93.20;;;;;;6204512;23;20016;-85
2023/06/29 12:02:34;;;;;;;32.10;25.48;;;24.80;93.30;;;;;;6230368;23;20403;-84
2023/06/29 12:05:03;;;;;;;33.78;26.38;;;25.00;93.10;;;;;;6204291;23;20048;-84
2023/06/29 12:07:43;;;;;;;27.75;22.90;;;25.20;92.70;;;;;;6204727;23;20004;-86
2023/06/29 12:10:19;;;;;;;26.65;22.98;;;25.20;92.60;;;;;;6203981;23;20047;-85
2023/06/29 12:12:48;;;;;;;29.92;23.30;;;25.20;92.50;;;;;;6203863;23;20939;-84
2023/06/29 12:15:21;;;;;;;28.98;23.15;;;25.10;92.50;;;;;;6204250;23;20095;-83
2023/06/29 12:17:50;;;;;;;27.98;22.30;;;25.30;92.60;;;;;;6228906;23;20016;-85
2023/06/29 12:20:21;;;;;;;29.58;23.58;;;25.30;92.60;;;;;;6204903;23;20016;-85
2023/06/29 12:22:49;;;;;;;29.60;22.73;;;25.60;92.50;;;;;;6204745;23;20016;-86
2023/06/29 12:25:16;;;;;;;33.35;23.98;;;26.00;92.30;;;;;;6204086;23;20446;-85
2023/06/29 12:27:50;;;;;;;25.75;22.48;;;26.40;91.90;;;;;;6229700;23;20047;-85
2023/06/29 12:30:20;;;;;;;24.92;21.38;;;26.60;91.70;;;;;;6205483;23;20102;-84
2023/06/29 12:32:48;;;;;;;26.07;21.10;;;26.90;91.10;;;;;;6205149;23;20016;-86
2023/06/29 12:35:14;;;;;;;27.63;22.95;;;26.90;90.90;;;;;;6205256;23;20012;-84
2023/06/29 12:37:40;;;;;;;30.10;23.48;;;27.00;90.60;;;;;;6205440;23;20518;-88
2023/06/29 12:40:07;;;;;;;27.77;23.48;;;27.00;90.20;;;;;;6209112;23;20043;-87